sensor_id;sensor_type;location;lat;lon;timestamp;P1;durP1;ratioP1;P2;durP2;ratioP2
21270;SDS011;10795;50.796;3.860;2023-06-05T00:01:36;5.10;;;2.38;;
21270;SDS011;10795;50.796;3.860;2023-06-05T00:04:03;5.78;;;2.72;;
21270;SDS011;10795;50.796;3.860;2023-06-05T00:06:29;4.90;;;2.90;;
21270;SDS011;10795;50.796;3.860;2023-06-05T00:08:55;4.40;;;3.13;;
21270;SDS011;10795;50.796;3.860;2023-06-05T00:11:22;3.90;;;2.70;;
21270;SDS011;10795;50.796;3.860;2023-06-05T00:13:48;7.70;;;3.03;;
21270;SDS011;10795;50.796;3.860;2023-06-05T00:16:15;4.97;;;2.50;;
21270;SDS011;10795;50.796;3.860;2023-06-05T00:18:41;3.83;;;2.55;;
21270;SDS011;10795;50.796;3.860;2023-06-05T00:21:09;5.68;;;3.50;;
21270;SDS011;10795;50.796;3.860;2023-06-05T00:23:35;7.00;;;3.25;;
21270;SDS011;10795;50.796;3.860;2023-06-05T00:26:01;6.13;;;3.20;;
21270;SDS011;10795;50.796;3.860;2023-06-05T00:28:27;7.30;;;3.35;;
21270;SDS011;10795;50.796;3.860;2023-06-05T00:30:53;4.22;;;3.03;;
21270;SDS011;10795;50.796;3.860;2023-06-05T00:33:19;5.93;;;2.97;;
21270;SDS011;10795;50.796;3.860;2023-06-05T00:35:45;5.60;;;3.00;;
21270;SDS011;10795;50.796;3.860;2023-06-05T00:38:11;4.57;;;2.92;;
21270;SDS011;10795;50.796;3.860;2023-06-05T00:40:37;4.55;;;2.83;;
21270;SDS011;10795;50.796;3.860;2023-06-05T00:43:03;4.07;;;3.05;;
21270;SDS011;10795;50.796;3.860;2023-06-05T00:45:30;6.18;;;2.60;;
21270;SDS011;10795;50.796;3.860;2023-06-05T00:47:57;6.43;;;3.58;;
21270;SDS011;10795;50.796;3.860;2023-06-05T00:50:24;7.15;;;3.20;;
21270;SDS011;10795;50.796;3.860;2023-06-05T00:52:50;6.63;;;3.53;;
21270;SDS011;10795;50.796;3.860;2023-06-05T00:55:19;5.63;;;3.83;;
21270;SDS011;10795;50.796;3.860;2023-06-05T00:57:45;10.25;;;3.70;;
21270;SDS011;10795;50.796;3.860;2023-06-05T01:00:11;6.05;;;3.40;;
21270;SDS011;10795;50.796;3.860;2023-06-05T01:02:40;5.63;;;3.25;;
21270;SDS011;10795;50.796;3.860;2023-06-05T01:05:07;6.63;;;3.63;;
21270;SDS011;10795;50.796;3.860;2023-06-05T01:07:33;7.15;;;3.80;;
21270;SDS011;10795;50.796;3.860;2023-06-05T01:10:04;4.32;;;3.92;;
21270;SDS011;10795;50.796;3.860;2023-06-05T01:12:50;7.38;;;4.10;;
21270;SDS011;10795;50.796;3.860;2023-06-05T01:15:23;6.22;;;3.47;;
21270;SDS011;10795;50.796;3.860;2023-06-05T01:17:54;6.78;;;4.00;;
21270;SDS011;10795;50.796;3.860;2023-06-05T01:20:34;6.65;;;4.22;;
21270;SDS011;10795;50.796;3.860;2023-06-05T01:23:04;8.50;;;3.78;;
21270;SDS011;10795;50.796;3.860;2023-06-05T01:28:10;5.57;;;4.15;;
21270;SDS011;10795;50.796;3.860;2023-06-05T01:33:38;7.10;;;4.18;;
21270;SDS011;10795;50.796;3.860;2023-06-05T01:36:10;5.68;;;4.20;;
21270;SDS011;10795;50.796;3.860;2023-06-05T01:38:39;6.70;;;4.50;;
21270;SDS011;10795;50.796;3.860;2023-06-05T01:41:06;8.35;;;4.90;;
21270;SDS011;10795;50.796;3.860;2023-06-05T01:43:33;7.25;;;4.65;;
21270;SDS011;10795;50.796;3.860;2023-06-05T01:46:03;6.55;;;4.47;;
21270;SDS011;10795;50.796;3.860;2023-06-05T01:48:32;6.60;;;4.70;;
21270;SDS011;10795;50.796;3.860;2023-06-05T01:50:59;9.52;;;4.95;;
21270;SDS011;10795;50.796;3.860;2023-06-05T01:53:26;7.95;;;4.35;;
21270;SDS011;10795;50.796;3.860;2023-06-05T01:55:52;6.45;;;4.18;;
21270;SDS011;10795;50.796;3.860;2023-06-05T02:00:48;11.90;;;5.07;;
21270;SDS011;10795;50.796;3.860;2023-06-05T02:03:16;6.82;;;4.97;;
21270;SDS011;10795;50.796;3.860;2023-06-05T02:05:44;5.95;;;3.80;;
21270;SDS011;10795;50.796;3.860;2023-06-05T02:08:10;7.95;;;4.75;;
21270;SDS011;10795;50.796;3.860;2023-06-05T02:10:37;6.78;;;4.63;;
21270;SDS011;10795;50.796;3.860;2023-06-05T02:13:08;6.72;;;5.13;;
21270;SDS011;10795;50.796;3.860;2023-06-05T02:15:34;9.25;;;5.28;;
21270;SDS011;10795;50.796;3.860;2023-06-05T02:18:01;8.25;;;4.97;;
21270;SDS011;10795;50.796;3.860;2023-06-05T02:20:30;8.13;;;4.43;;
21270;SDS011;10795;50.796;3.860;2023-06-05T02:22:57;7.63;;;5.13;;
21270;SDS011;10795;50.796;3.860;2023-06-05T02:25:23;7.20;;;4.57;;
21270;SDS011;10795;50.796;3.860;2023-06-05T02:27:52;7.55;;;4.90;;
21270;SDS011;10795;50.796;3.860;2023-06-05T02:30:19;6.03;;;4.50;;
21270;SDS011;10795;50.796;3.860;2023-06-05T02:32:49;7.03;;;4.70;;
21270;SDS011;10795;50.796;3.860;2023-06-05T02:35:23;6.85;;;5.20;;
21270;SDS011;10795;50.796;3.860;2023-06-05T02:37:49;8.05;;;5.07;;
21270;SDS011;10795;50.796;3.860;2023-06-05T02:40:16;10.55;;;5.90;;
21270;SDS011;10795;50.796;3.860;2023-06-05T02:42:42;11.27;;;4.20;;
21270;SDS011;10795;50.796;3.860;2023-06-05T02:45:07;8.77;;;5.28;;
21270;SDS011;10795;50.796;3.860;2023-06-05T02:47:34;9.05;;;5.93;;
21270;SDS011;10795;50.796;3.860;2023-06-05T02:50:01;8.35;;;5.22;;
21270;SDS011;10795;50.796;3.860;2023-06-05T02:52:31;8.25;;;5.43;;
21270;SDS011;10795;50.796;3.860;2023-06-05T02:55:07;8.57;;;5.40;;
21270;SDS011;10795;50.796;3.860;2023-06-05T02:57:34;8.13;;;4.68;;
21270;SDS011;10795;50.796;3.860;2023-06-05T03:00:12;7.63;;;5.25;;
21270;SDS011;10795;50.796;3.860;2023-06-05T03:02:43;6.53;;;4.70;;
21270;SDS011;10795;50.796;3.860;2023-06-05T03:05:15;7.35;;;4.93;;
21270;SDS011;10795;50.796;3.860;2023-06-05T03:07:43;7.00;;;4.63;;
21270;SDS011;10795;50.796;3.860;2023-06-05T03:10:11;6.50;;;4.90;;
21270;SDS011;10795;50.796;3.860;2023-06-05T03:12:36;9.90;;;5.68;;
21270;SDS011;10795;50.796;3.860;2023-06-05T03:15:02;7.32;;;4.72;;
21270;SDS011;10795;50.796;3.860;2023-06-05T03:17:29;7.13;;;5.40;;
21270;SDS011;10795;50.796;3.860;2023-06-05T03:19:56;8.10;;;5.60;;
21270;SDS011;10795;50.796;3.860;2023-06-05T03:22:22;8.48;;;5.38;;
21270;SDS011;10795;50.796;3.860;2023-06-05T03:24:50;10.40;;;5.97;;
21270;SDS011;10795;50.796;3.860;2023-06-05T03:27:17;6.40;;;5.35;;
21270;SDS011;10795;50.796;3.860;2023-06-05T03:29:42;8.25;;;5.43;;
21270;SDS011;10795;50.796;3.860;2023-06-05T03:32:08;8.88;;;5.60;;
21270;SDS011;10795;50.796;3.860;2023-06-05T03:34:36;7.38;;;5.78;;
21270;SDS011;10795;50.796;3.860;2023-06-05T03:37:03;9.43;;;5.72;;
21270;SDS011;10795;50.796;3.860;2023-06-05T03:39:29;7.85;;;5.50;;
21270;SDS011;10795;50.796;3.860;2023-06-05T03:41:57;8.75;;;4.85;;
21270;SDS011;10795;50.796;3.860;2023-06-05T03:44:26;12.60;;;5.88;;
21270;SDS011;10795;50.796;3.860;2023-06-05T03:46:53;9.45;;;5.95;;
21270;SDS011;10795;50.796;3.860;2023-06-05T03:49:19;9.30;;;5.50;;
21270;SDS011;10795;50.796;3.860;2023-06-05T03:51:48;7.63;;;5.50;;
21270;SDS011;10795;50.796;3.860;2023-06-05T03:54:15;10.75;;;5.68;;
21270;SDS011;10795;50.796;3.860;2023-06-05T03:56:42;10.88;;;5.30;;
21270;SDS011;10795;50.796;3.860;2023-06-05T03:59:15;8.80;;;5.93;;
21270;SDS011;10795;50.796;3.860;2023-06-05T04:01:48;8.35;;;6.30;;
21270;SDS011;10795;50.796;3.860;2023-06-05T04:04:15;10.43;;;6.70;;
21270;SDS011;10795;50.796;3.860;2023-06-05T04:06:41;8.07;;;5.93;;
21270;SDS011;10795;50.796;3.860;2023-06-05T04:09:08;9.32;;;5.88;;
21270;SDS011;10795;50.796;3.860;2023-06-05T04:11:38;8.43;;;5.35;;
21270;SDS011;10795;50.796;3.860;2023-06-05T04:14:09;8.18;;;5.65;;
21270;SDS011;10795;50.796;3.860;2023-06-05T04:16:36;7.53;;;5.72;;
21270;SDS011;10795;50.796;3.860;2023-06-05T04:19:11;7.40;;;5.50;;
21270;SDS011;10795;50.796;3.860;2023-06-05T04:21:39;9.07;;;6.05;;
21270;SDS011;10795;50.796;3.860;2023-06-05T04:24:09;7.97;;;5.38;;
21270;SDS011;10795;50.796;3.860;2023-06-05T04:26:37;7.43;;;5.35;;
21270;SDS011;10795;50.796;3.860;2023-06-05T04:29:06;7.05;;;5.13;;
21270;SDS011;10795;50.796;3.860;2023-06-05T04:31:42;9.82;;;6.05;;
21270;SDS011;10795;50.796;3.860;2023-06-05T04:34:09;8.02;;;5.75;;
21270;SDS011;10795;50.796;3.860;2023-06-05T04:36:35;7.85;;;5.22;;
21270;SDS011;10795;50.796;3.860;2023-06-05T04:39:02;8.70;;;6.13;;
21270;SDS011;10795;50.796;3.860;2023-06-05T04:41:29;8.63;;;5.40;;
21270;SDS011;10795;50.796;3.860;2023-06-05T04:43:59;8.50;;;5.30;;
21270;SDS011;10795;50.796;3.860;2023-06-05T04:46:26;8.25;;;5.80;;
21270;SDS011;10795;50.796;3.860;2023-06-05T04:48:53;8.88;;;5.03;;
21270;SDS011;10795;50.796;3.860;2023-06-05T04:51:21;6.18;;;4.15;;
21270;SDS011;10795;50.796;3.860;2023-06-05T04:53:47;6.75;;;5.10;;
21270;SDS011;10795;50.796;3.860;2023-06-05T04:56:19;11.90;;;5.25;;
21270;SDS011;10795;50.796;3.860;2023-06-05T04:58:49;7.75;;;4.45;;
21270;SDS011;10795;50.796;3.860;2023-06-05T05:01:17;8.25;;;5.72;;
21270;SDS011;10795;50.796;3.860;2023-06-05T05:03:43;7.55;;;5.18;;
21270;SDS011;10795;50.796;3.860;2023-06-05T05:06:11;7.47;;;5.72;;
21270;SDS011;10795;50.796;3.860;2023-06-05T05:08:40;10.10;;;6.47;;
21270;SDS011;10795;50.796;3.860;2023-06-05T05:11:06;5.85;;;5.25;;
21270;SDS011;10795;50.796;3.860;2023-06-05T05:13:32;7.28;;;4.78;;
21270;SDS011;10795;50.796;3.860;2023-06-05T05:15:58;7.63;;;5.22;;
21270;SDS011;10795;50.796;3.860;2023-06-05T05:18:24;8.35;;;4.40;;
21270;SDS011;10795;50.796;3.860;2023-06-05T05:20:50;6.00;;;5.32;;
21270;SDS011;10795;50.796;3.860;2023-06-05T05:23:16;8.90;;;5.28;;
21270;SDS011;10795;50.796;3.860;2023-06-05T05:25:43;8.15;;;4.20;;
21270;SDS011;10795;50.796;3.860;2023-06-05T05:28:08;8.50;;;5.45;;
21270;SDS011;10795;50.796;3.860;2023-06-05T05:30:34;10.13;;;5.05;;
21270;SDS011;10795;50.796;3.860;2023-06-05T05:33:01;8.00;;;5.10;;
21270;SDS011;10795;50.796;3.860;2023-06-05T05:35:27;6.68;;;5.35;;
21270;SDS011;10795;50.796;3.860;2023-06-05T05:37:53;11.43;;;5.63;;
21270;SDS011;10795;50.796;3.860;2023-06-05T05:40:19;8.77;;;5.97;;
21270;SDS011;10795;50.796;3.860;2023-06-05T05:42:44;8.85;;;5.43;;
21270;SDS011;10795;50.796;3.860;2023-06-05T05:45:10;9.45;;;4.82;;
21270;SDS011;10795;50.796;3.860;2023-06-05T05:47:36;7.22;;;4.97;;
21270;SDS011;10795;50.796;3.860;2023-06-05T05:50:02;7.13;;;5.18;;
21270;SDS011;10795;50.796;3.860;2023-06-05T05:52:28;9.27;;;5.78;;
21270;SDS011;10795;50.796;3.860;2023-06-05T05:54:53;8.13;;;5.50;;
21270;SDS011;10795;50.796;3.860;2023-06-05T05:57:19;8.73;;;5.90;;
21270;SDS011;10795;50.796;3.860;2023-06-05T05:59:45;5.28;;;4.50;;
21270;SDS011;10795;50.796;3.860;2023-06-05T06:02:11;6.97;;;4.53;;
21270;SDS011;10795;50.796;3.860;2023-06-05T06:04:38;6.53;;;4.53;;
21270;SDS011;10795;50.796;3.860;2023-06-05T06:07:04;7.95;;;5.07;;
21270;SDS011;10795;50.796;3.860;2023-06-05T06:09:31;6.72;;;4.82;;
21270;SDS011;10795;50.796;3.860;2023-06-05T06:11:57;4.82;;;3.80;;
21270;SDS011;10795;50.796;3.860;2023-06-05T06:14:23;5.03;;;4.35;;
21270;SDS011;10795;50.796;3.860;2023-06-05T06:16:49;9.25;;;5.45;;
21270;SDS011;10795;50.796;3.860;2023-06-05T06:19:16;9.38;;;5.88;;
21270;SDS011;10795;50.796;3.860;2023-06-05T06:21:42;7.53;;;5.30;;
21270;SDS011;10795;50.796;3.860;2023-06-05T06:24:08;7.90;;;5.80;;
21270;SDS011;10795;50.796;3.860;2023-06-05T06:26:34;6.47;;;4.68;;
21270;SDS011;10795;50.796;3.860;2023-06-05T06:29:04;9.57;;;5.70;;
21270;SDS011;10795;50.796;3.860;2023-06-05T06:31:30;6.50;;;4.95;;
21270;SDS011;10795;50.796;3.860;2023-06-05T06:33:55;7.78;;;5.40;;
21270;SDS011;10795;50.796;3.860;2023-06-05T06:36:21;10.98;;;5.32;;
21270;SDS011;10795;50.796;3.860;2023-06-05T06:38:47;7.40;;;5.38;;
21270;SDS011;10795;50.796;3.860;2023-06-05T06:41:13;10.90;;;5.97;;
21270;SDS011;10795;50.796;3.860;2023-06-05T06:43:39;8.68;;;4.80;;
21270;SDS011;10795;50.796;3.860;2023-06-05T06:46:06;6.78;;;4.90;;
21270;SDS011;10795;50.796;3.860;2023-06-05T06:48:32;8.70;;;6.53;;
21270;SDS011;10795;50.796;3.860;2023-06-05T06:50:58;7.95;;;5.50;;
21270;SDS011;10795;50.796;3.860;2023-06-05T06:53:24;8.77;;;5.53;;
21270;SDS011;10795;50.796;3.860;2023-06-05T06:55:50;6.35;;;4.80;;
21270;SDS011;10795;50.796;3.860;2023-06-05T06:58:16;11.00;;;6.43;;
21270;SDS011;10795;50.796;3.860;2023-06-05T07:00:43;7.18;;;5.53;;
21270;SDS011;10795;50.796;3.860;2023-06-05T07:03:09;7.43;;;6.30;;
21270;SDS011;10795;50.796;3.860;2023-06-05T07:05:35;7.63;;;5.50;;
21270;SDS011;10795;50.796;3.860;2023-06-05T07:08:01;11.95;;;6.03;;
21270;SDS011;10795;50.796;3.860;2023-06-05T07:10:27;9.65;;;5.65;;
21270;SDS011;10795;50.796;3.860;2023-06-05T07:12:53;6.65;;;5.72;;
21270;SDS011;10795;50.796;3.860;2023-06-05T07:15:19;9.40;;;6.22;;
21270;SDS011;10795;50.796;3.860;2023-06-05T07:17:45;11.18;;;5.97;;
21270;SDS011;10795;50.796;3.860;2023-06-05T07:20:11;7.60;;;6.30;;
21270;SDS011;10795;50.796;3.860;2023-06-05T07:22:41;8.95;;;6.28;;
21270;SDS011;10795;50.796;3.860;2023-06-05T07:25:09;9.25;;;5.75;;
21270;SDS011;10795;50.796;3.860;2023-06-05T07:27:37;9.35;;;6.13;;
21270;SDS011;10795;50.796;3.860;2023-06-05T07:30:05;6.60;;;5.05;;
21270;SDS011;10795;50.796;3.860;2023-06-05T07:32:32;7.45;;;6.28;;
21270;SDS011;10795;50.796;3.860;2023-06-05T07:34:58;8.00;;;5.63;;
21270;SDS011;10795;50.796;3.860;2023-06-05T07:37:23;7.90;;;6.15;;
21270;SDS011;10795;50.796;3.860;2023-06-05T07:39:50;9.05;;;6.05;;
21270;SDS011;10795;50.796;3.860;2023-06-05T07:42:16;7.85;;;5.93;;
21270;SDS011;10795;50.796;3.860;2023-06-05T07:44:42;8.45;;;6.97;;
21270;SDS011;10795;50.796;3.860;2023-06-05T07:47:08;9.07;;;6.80;;
21270;SDS011;10795;50.796;3.860;2023-06-05T07:49:33;13.52;;;7.07;;
21270;SDS011;10795;50.796;3.860;2023-06-05T07:51:59;5.18;;;4.28;;
21270;SDS011;10795;50.796;3.860;2023-06-05T07:54:25;9.30;;;6.13;;
21270;SDS011;10795;50.796;3.860;2023-06-05T07:56:51;5.32;;;3.53;;
21270;SDS011;10795;50.796;3.860;2023-06-05T07:59:17;8.98;;;6.57;;
21270;SDS011;10795;50.796;3.860;2023-06-05T08:01:49;9.23;;;7.03;;
21270;SDS011;10795;50.796;3.860;2023-06-05T08:04:15;7.40;;;4.88;;
21270;SDS011;10795;50.796;3.860;2023-06-05T08:06:41;6.07;;;4.72;;
21270;SDS011;10795;50.796;3.860;2023-06-05T08:09:07;7.65;;;6.47;;
21270;SDS011;10795;50.796;3.860;2023-06-05T08:11:38;9.85;;;6.90;;
21270;SDS011;10795;50.796;3.860;2023-06-05T08:14:05;5.22;;;4.72;;
21270;SDS011;10795;50.796;3.860;2023-06-05T08:16:31;5.28;;;4.78;;
21270;SDS011;10795;50.796;3.860;2023-06-05T08:18:58;5.72;;;4.00;;
21270;SDS011;10795;50.796;3.860;2023-06-05T08:21:23;7.22;;;5.57;;
21270;SDS011;10795;50.796;3.860;2023-06-05T08:23:49;6.80;;;5.50;;
21270;SDS011;10795;50.796;3.860;2023-06-05T08:26:18;9.00;;;6.78;;
21270;SDS011;10795;50.796;3.860;2023-06-05T08:28:45;6.60;;;5.38;;
21270;SDS011;10795;50.796;3.860;2023-06-05T08:31:10;8.85;;;4.50;;
21270;SDS011;10795;50.796;3.860;2023-06-05T08:33:37;7.85;;;6.70;;
21270;SDS011;10795;50.796;3.860;2023-06-05T08:36:03;8.02;;;6.90;;
21270;SDS011;10795;50.796;3.860;2023-06-05T08:38:31;8.73;;;6.07;;
21270;SDS011;10795;50.796;3.860;2023-06-05T08:41:01;5.40;;;4.50;;
21270;SDS011;10795;50.796;3.860;2023-06-05T08:43:30;7.80;;;5.55;;
21270;SDS011;10795;50.796;3.860;2023-06-05T08:45:57;9.82;;;6.28;;
21270;SDS011;10795;50.796;3.860;2023-06-05T08:48:26;10.18;;;7.15;;
21270;SDS011;10795;50.796;3.860;2023-06-05T08:50:55;5.18;;;3.90;;
21270;SDS011;10795;50.796;3.860;2023-06-05T08:53:23;5.55;;;4.03;;
21270;SDS011;10795;50.796;3.860;2023-06-05T08:55:53;8.13;;;6.57;;
21270;SDS011;10795;50.796;3.860;2023-06-05T08:58:20;8.32;;;7.32;;
21270;SDS011;10795;50.796;3.860;2023-06-05T09:00:46;5.88;;;5.32;;
21270;SDS011;10795;50.796;3.860;2023-06-05T09:03:14;7.65;;;6.78;;
21270;SDS011;10795;50.796;3.860;2023-06-05T09:05:48;5.82;;;5.22;;
21270;SDS011;10795;50.796;3.860;2023-06-05T09:08:14;12.05;;;7.28;;
21270;SDS011;10795;50.796;3.860;2023-06-05T09:10:42;11.10;;;7.65;;
21270;SDS011;10795;50.796;3.860;2023-06-05T09:13:08;9.98;;;6.75;;
21270;SDS011;10795;50.796;3.860;2023-06-05T09:15:35;6.63;;;5.93;;
21270;SDS011;10795;50.796;3.860;2023-06-05T09:18:02;6.15;;;4.88;;
21270;SDS011;10795;50.796;3.860;2023-06-05T09:20:29;8.27;;;6.20;;
21270;SDS011;10795;50.796;3.860;2023-06-05T09:23:00;7.65;;;6.78;;
21270;SDS011;10795;50.796;3.860;2023-06-05T09:25:27;7.32;;;5.07;;
21270;SDS011;10795;50.796;3.860;2023-06-05T09:28:13;8.27;;;5.60;;
21270;SDS011;10795;50.796;3.860;2023-06-05T09:33:29;10.38;;;7.38;;
21270;SDS011;10795;50.796;3.860;2023-06-05T09:36:10;9.43;;;7.23;;
21270;SDS011;10795;50.796;3.860;2023-06-05T09:38:38;12.43;;;6.68;;
21270;SDS011;10795;50.796;3.860;2023-06-05T09:41:08;10.57;;;7.47;;
21270;SDS011;10795;50.796;3.860;2023-06-05T09:43:36;9.63;;;6.47;;
21270;SDS011;10795;50.796;3.860;2023-06-05T09:46:12;7.53;;;6.80;;
21270;SDS011;10795;50.796;3.860;2023-06-05T09:48:39;10.27;;;6.88;;
21270;SDS011;10795;50.796;3.860;2023-06-05T09:51:13;8.73;;;6.97;;
21270;SDS011;10795;50.796;3.860;2023-06-05T09:53:44;8.32;;;6.80;;
21270;SDS011;10795;50.796;3.860;2023-06-05T09:56:12;4.85;;;3.92;;
21270;SDS011;10795;50.796;3.860;2023-06-05T09:58:57;13.23;;;7.10;;
21270;SDS011;10795;50.796;3.860;2023-06-05T10:01:23;9.13;;;6.93;;
21270;SDS011;10795;50.796;3.860;2023-06-05T10:06:23;9.52;;;7.40;;
21270;SDS011;10795;50.796;3.860;2023-06-05T10:08:52;9.20;;;6.63;;
21270;SDS011;10795;50.796;3.860;2023-06-05T10:11:22;9.02;;;6.55;;
21270;SDS011;10795;50.796;3.860;2023-06-05T10:13:49;7.80;;;6.53;;
21270;SDS011;10795;50.796;3.860;2023-06-05T10:16:19;5.65;;;5.03;;
21270;SDS011;10795;50.796;3.860;2023-06-05T10:18:45;10.40;;;7.15;;
21270;SDS011;10795;50.796;3.860;2023-06-05T10:21:16;9.30;;;7.28;;
21270;SDS011;10795;50.796;3.860;2023-06-05T10:23:59;9.55;;;6.43;;
21270;SDS011;10795;50.796;3.860;2023-06-05T10:29:11;4.72;;;4.07;;
21270;SDS011;10795;50.796;3.860;2023-06-05T10:31:52;10.93;;;6.50;;
21270;SDS011;10795;50.796;3.860;2023-06-05T10:34:37;7.82;;;6.72;;
21270;SDS011;10795;50.796;3.860;2023-06-05T10:40:09;7.10;;;5.65;;
21270;SDS011;10795;50.796;3.860;2023-06-05T10:42:35;7.88;;;5.90;;
21270;SDS011;10795;50.796;3.860;2023-06-05T10:45:02;6.80;;;6.10;;
21270;SDS011;10795;50.796;3.860;2023-06-05T10:52:42;6.95;;;6.22;;
21270;SDS011;10795;50.796;3.860;2023-06-05T10:55:08;11.50;;;7.05;;
21270;SDS011;10795;50.796;3.860;2023-06-05T11:00:28;8.82;;;5.95;;
21270;SDS011;10795;50.796;3.860;2023-06-05T11:02:55;8.45;;;6.05;;
21270;SDS011;10795;50.796;3.860;2023-06-05T11:05:21;8.35;;;5.45;;
21270;SDS011;10795;50.796;3.860;2023-06-05T11:07:47;8.77;;;6.65;;
21270;SDS011;10795;50.796;3.860;2023-06-05T11:10:33;11.40;;;6.28;;
21270;SDS011;10795;50.796;3.860;2023-06-05T11:12:59;6.50;;;5.85;;
21270;SDS011;10795;50.796;3.860;2023-06-05T11:15:39;5.60;;;4.55;;
21270;SDS011;10795;50.796;3.860;2023-06-05T11:21:01;11.27;;;6.07;;
21270;SDS011;10795;50.796;3.860;2023-06-05T11:23:27;9.10;;;5.28;;
21270;SDS011;10795;50.796;3.860;2023-06-05T11:25:57;9.23;;;6.70;;
21270;SDS011;10795;50.796;3.860;2023-06-05T11:28:44;10.50;;;5.88;;
21270;SDS011;10795;50.796;3.860;2023-06-05T11:31:10;7.53;;;4.93;;
21270;SDS011;10795;50.796;3.860;2023-06-05T11:33:36;6.78;;;5.18;;
21270;SDS011;10795;50.796;3.860;2023-06-05T11:36:06;8.05;;;5.85;;
21270;SDS011;10795;50.796;3.860;2023-06-05T11:38:32;6.82;;;4.97;;
21270;SDS011;10795;50.796;3.860;2023-06-05T11:40:58;10.00;;;5.82;;
21270;SDS011;10795;50.796;3.860;2023-06-05T11:43:24;7.55;;;5.78;;
21270;SDS011;10795;50.796;3.860;2023-06-05T11:48:18;4.38;;;3.97;;
21270;SDS011;10795;50.796;3.860;2023-06-05T11:51:01;9.45;;;6.45;;
21270;SDS011;10795;50.796;3.860;2023-06-05T11:53:28;9.38;;;5.30;;
21270;SDS011;10795;50.796;3.860;2023-06-05T11:55:56;7.13;;;4.50;;
21270;SDS011;10795;50.796;3.860;2023-06-05T11:58:29;6.45;;;4.43;;
21270;SDS011;10795;50.796;3.860;2023-06-05T12:03:31;9.93;;;6.25;;
21270;SDS011;10795;50.796;3.860;2023-06-05T12:06:00;8.55;;;5.40;;
21270;SDS011;10795;50.796;3.860;2023-06-05T12:08:28;6.75;;;4.80;;
21270;SDS011;10795;50.796;3.860;2023-06-05T12:10:58;6.60;;;5.53;;
21270;SDS011;10795;50.796;3.860;2023-06-05T12:16:41;7.57;;;5.28;;
21270;SDS011;10795;50.796;3.860;2023-06-05T12:21:39;7.78;;;5.25;;
21270;SDS011;10795;50.796;3.860;2023-06-05T12:24:06;9.43;;;5.75;;
21270;SDS011;10795;50.796;3.860;2023-06-05T12:29:21;5.60;;;4.53;;
21270;SDS011;10795;50.796;3.860;2023-06-05T12:31:48;8.13;;;5.38;;
21270;SDS011;10795;50.796;3.860;2023-06-05T12:34:14;9.05;;;5.25;;
21270;SDS011;10795;50.796;3.860;2023-06-05T12:36:43;10.43;;;5.95;;
21270;SDS011;10795;50.796;3.860;2023-06-05T12:39:13;7.85;;;5.70;;
21270;SDS011;10795;50.796;3.860;2023-06-05T12:41:41;8.68;;;5.78;;
21270;SDS011;10795;50.796;3.860;2023-06-05T12:44:07;8.25;;;4.70;;
21270;SDS011;10795;50.796;3.860;2023-06-05T12:46:34;9.30;;;5.47;;
21270;SDS011;10795;50.796;3.860;2023-06-05T12:49:01;8.00;;;5.10;;
21270;SDS011;10795;50.796;3.860;2023-06-05T12:51:28;7.50;;;4.82;;
21270;SDS011;10795;50.796;3.860;2023-06-05T12:53:55;11.85;;;5.00;;
21270;SDS011;10795;50.796;3.860;2023-06-05T12:56:22;6.97;;;5.88;;
21270;SDS011;10795;50.796;3.860;2023-06-05T12:58:56;8.40;;;4.45;;
21270;SDS011;10795;50.796;3.860;2023-06-05T13:01:22;5.93;;;4.88;;
21270;SDS011;10795;50.796;3.860;2023-06-05T13:03:50;7.85;;;4.55;;
21270;SDS011;10795;50.796;3.860;2023-06-05T13:06:16;7.68;;;5.38;;
21270;SDS011;10795;50.796;3.860;2023-06-05T13:08:42;6.80;;;4.43;;
21270;SDS011;10795;50.796;3.860;2023-06-05T13:11:08;5.95;;;5.05;;
21270;SDS011;10795;50.796;3.860;2023-06-05T13:13:35;7.65;;;6.03;;
21270;SDS011;10795;50.796;3.860;2023-06-05T13:16:01;8.98;;;5.53;;
21270;SDS011;10795;50.796;3.860;2023-06-05T13:18:30;9.18;;;4.35;;
21270;SDS011;10795;50.796;3.860;2023-06-05T13:20:56;9.70;;;5.97;;
21270;SDS011;10795;50.796;3.860;2023-06-05T13:23:21;7.03;;;6.32;;
21270;SDS011;10795;50.796;3.860;2023-06-05T13:25:47;7.90;;;5.82;;
21270;SDS011;10795;50.796;3.860;2023-06-05T13:28:13;11.07;;;6.53;;
21270;SDS011;10795;50.796;3.860;2023-06-05T13:30:39;7.70;;;5.50;;
21270;SDS011;10795;50.796;3.860;2023-06-05T13:33:04;6.57;;;5.13;;
21270;SDS011;10795;50.796;3.860;2023-06-05T13:35:30;10.27;;;5.63;;
21270;SDS011;10795;50.796;3.860;2023-06-05T13:37:56;8.10;;;6.22;;
21270;SDS011;10795;50.796;3.860;2023-06-05T13:40:22;7.50;;;5.45;;
21270;SDS011;10795;50.796;3.860;2023-06-05T13:42:48;6.80;;;4.82;;
21270;SDS011;10795;50.796;3.860;2023-06-05T13:45:16;8.18;;;4.93;;
21270;SDS011;10795;50.796;3.860;2023-06-05T13:47:42;8.70;;;5.20;;
21270;SDS011;10795;50.796;3.860;2023-06-05T13:50:08;7.10;;;5.60;;
21270;SDS011;10795;50.796;3.860;2023-06-05T13:52:34;8.13;;;5.32;;
21270;SDS011;10795;50.796;3.860;2023-06-05T13:55:00;9.65;;;6.38;;
21270;SDS011;10795;50.796;3.860;2023-06-05T13:57:26;10.73;;;6.05;;
21270;SDS011;10795;50.796;3.860;2023-06-05T13:59:52;9.40;;;7.13;;
21270;SDS011;10795;50.796;3.860;2023-06-05T14:02:20;7.90;;;6.10;;
21270;SDS011;10795;50.796;3.860;2023-06-05T14:04:46;12.68;;;6.78;;
21270;SDS011;10795;50.796;3.860;2023-06-05T14:07:12;7.68;;;5.97;;
21270;SDS011;10795;50.796;3.860;2023-06-05T14:09:38;7.68;;;5.80;;
21270;SDS011;10795;50.796;3.860;2023-06-05T14:12:04;10.98;;;7.22;;
21270;SDS011;10795;50.796;3.860;2023-06-05T14:14:30;7.22;;;6.35;;
21270;SDS011;10795;50.796;3.860;2023-06-05T14:16:56;8.35;;;6.50;;
21270;SDS011;10795;50.796;3.860;2023-06-05T14:19:22;6.28;;;4.40;;
21270;SDS011;10795;50.796;3.860;2023-06-05T14:21:48;6.30;;;5.00;;
21270;SDS011;10795;50.796;3.860;2023-06-05T14:24:14;5.18;;;4.07;;
21270;SDS011;10795;50.796;3.860;2023-06-05T14:26:40;5.78;;;4.70;;
21270;SDS011;10795;50.796;3.860;2023-06-05T14:29:06;6.50;;;4.82;;
21270;SDS011;10795;50.796;3.860;2023-06-05T14:31:32;7.93;;;6.35;;
21270;SDS011;10795;50.796;3.860;2023-06-05T14:33:58;7.65;;;5.45;;
21270;SDS011;10795;50.796;3.860;2023-06-05T14:36:24;5.38;;;4.80;;
21270;SDS011;10795;50.796;3.860;2023-06-05T14:38:50;7.53;;;5.45;;
21270;SDS011;10795;50.796;3.860;2023-06-05T14:41:16;8.15;;;5.13;;
21270;SDS011;10795;50.796;3.860;2023-06-05T14:43:42;9.20;;;5.55;;
21270;SDS011;10795;50.796;3.860;2023-06-05T14:46:08;9.68;;;6.15;;
21270;SDS011;10795;50.796;3.860;2023-06-05T14:48:34;8.15;;;5.75;;
21270;SDS011;10795;50.796;3.860;2023-06-05T14:51:00;7.32;;;4.95;;
21270;SDS011;10795;50.796;3.860;2023-06-05T14:53:25;8.85;;;5.15;;
21270;SDS011;10795;50.796;3.860;2023-06-05T14:55:52;5.82;;;4.60;;
21270;SDS011;10795;50.796;3.860;2023-06-05T14:58:18;10.88;;;5.65;;
21270;SDS011;10795;50.796;3.860;2023-06-05T15:00:47;8.00;;;5.50;;
21270;SDS011;10795;50.796;3.860;2023-06-05T15:03:13;6.40;;;4.50;;
21270;SDS011;10795;50.796;3.860;2023-06-05T15:05:39;8.38;;;4.25;;
21270;SDS011;10795;50.796;3.860;2023-06-05T15:08:05;6.78;;;4.75;;
21270;SDS011;10795;50.796;3.860;2023-06-05T15:10:31;4.68;;;3.92;;
21270;SDS011;10795;50.796;3.860;2023-06-05T15:12:57;5.72;;;4.50;;
21270;SDS011;10795;50.796;3.860;2023-06-05T15:15:23;8.40;;;5.20;;
21270;SDS011;10795;50.796;3.860;2023-06-05T15:17:49;8.50;;;4.47;;
21270;SDS011;10795;50.796;3.860;2023-06-05T15:20:18;6.25;;;4.53;;
21270;SDS011;10795;50.796;3.860;2023-06-05T15:22:45;9.32;;;5.05;;
21270;SDS011;10795;50.796;3.860;2023-06-05T15:25:10;5.93;;;4.88;;
21270;SDS011;10795;50.796;3.860;2023-06-05T15:27:37;5.63;;;5.03;;
21270;SDS011;10795;50.796;3.860;2023-06-05T15:30:04;9.38;;;4.97;;
21270;SDS011;10795;50.796;3.860;2023-06-05T15:32:33;5.95;;;4.47;;